Time;durP1;ratioP1;P1;durP2;ratioP2;P2;SDS_P1;SDS_P2;PMS_P1;PMS_P2;Temp;Humidity;BMP_temperature;BMP_pressure;BME280_temperature;BME280_humidity;BME280_pressure;Samples;Min_cycle;Max_cycle;Signal;HPM_P1;HPM_P2
2023/03/29 00:00:58;;;;;;;2.13;1.93;;;6.00;99.90;;;;;;5054479;28;20772;-71
2023/03/29 00:03:25;;;;;;;2.23;2.03;;;6.00;99.90;;;;;;5053722;28;20518;-71
2023/03/29 00:05:56;;;;;;;3.23;2.10;;;5.90;99.90;;;;;;5034403;28;20249;-72
2023/03/29 00:08:22;;;;;;;5.07;2.83;;;5.90;99.90;;;;;;5033388;28;20903;-72
2023/03/29 00:10:48;;;;;;;4.13;2.70;;;6.00;99.90;;;;;;5034395;28;20786;-72
2023/03/29 00:13:14;;;;;;;4.30;2.33;;;5.90;99.90;;;;;;5033978;28;20446;-71
2023/03/29 00:15:40;;;;;;;3.33;2.53;;;5.90;99.90;;;;;;5034306;28;20460;-72
2023/03/29 00:18:06;;;;;;;2.83;2.37;;;6.00;99.90;;;;;;5033565;28;20176;-71
2023/03/29 00:20:32;;;;;;;4.70;2.13;;;6.00;99.90;;;;;;5033996;28;20493;-72
2023/03/29 00:22:57;;;;;;;5.47;3.23;;;6.00;99.90;;;;;;5032160;28;20195;-71
2023/03/29 00:25:23;;;;;;;2.80;2.10;;;6.00;99.90;;;;;;5034015;28;20203;-71
2023/03/29 00:27:48;;;;;;;2.20;2.00;;;6.00;99.90;;;;;;5033770;28;20175;-72
2023/03/29 00:30:14;;;;;;;2.20;1.77;;;6.00;99.90;;;;;;5040972;28;20171;-71
2023/03/29 00:32:40;;;;;;;6.80;2.53;;;6.00;99.90;;;;;;5064593;28;20187;-72
2023/03/29 00:35:06;;;;;;;3.93;2.67;;;6.00;99.90;;;;;;5053814;28;20474;-71
2023/03/29 00:37:32;;;;;;;3.50;2.87;;;6.00;99.90;;;;;;5053452;28;20424;-71
2023/03/29 00:39:58;;;;;;;3.27;2.53;;;6.00;99.90;;;;;;5054008;28;20414;-71
2023/03/29 00:42:24;;;;;;;4.53;2.83;;;6.10;99.90;;;;;;5053686;28;20416;-72
2023/03/29 00:44:55;;;;;;;6.00;2.37;;;6.10;99.90;;;;;;5052302;28;20251;-71
2023/03/29 00:47:44;;;;;;;4.20;3.43;;;6.10;99.90;;;;;;5052054;28;20436;-71
2023/03/29 00:50:21;;;;;;;6.87;3.20;;;6.10;99.90;;;;;;5053650;28;20954;-71
2023/03/29 00:53:04;;;;;;;4.27;3.20;;;6.20;99.90;;;;;;5053521;28;20433;-72
2023/03/29 00:55:36;;;;;;;6.23;3.27;;;6.10;99.90;;;;;;5053442;28;20466;-71
2023/03/29 00:58:05;;;;;;;2.70;2.30;;;6.10;99.90;;;;;;5053202;28;20818;-71
2023/03/29 01:00:35;;;;;;;4.73;2.97;;;6.20;99.90;;;;;;5053560;28;20907;-71
2023/03/29 01:03:07;;;;;;;5.23;2.43;;;6.00;99.90;;;;;;5053284;28;20433;-72
2023/03/29 01:05:42;;;;;;;8.57;3.10;;;6.10;99.90;;;;;;5034776;28;20454;-72
2023/03/29 01:08:27;;;;;;;6.23;2.90;;;6.10;99.90;;;;;;5031872;28;20418;-71
2023/03/29 01:10:59;;;;;;;7.03;2.40;;;6.20;99.90;;;;;;5033324;28;20402;-71
2023/03/29 01:13:33;;;;;;;3.00;2.17;;;6.10;99.90;;;;;;5033142;28;20453;-71
2023/03/29 01:16:01;;;;;;;11.67;3.00;;;6.10;99.90;;;;;;5033143;28;20488;-72
2023/03/29 01:18:27;;;;;;;3.77;3.10;;;6.20;99.90;;;;;;5032976;28;20422;-71
2023/03/29 01:21:01;;;;;;;10.57;3.17;;;6.20;99.90;;;;;;5031708;28;20421;-71
2023/03/29 01:23:51;;;;;;;3.83;2.70;;;6.20;99.90;;;;;;5031668;28;20244;-71
2023/03/29 01:26:41;;;;;;;2.23;1.80;;;6.20;99.90;;;;;;5032963;28;20469;-71
2023/03/29 01:29:19;;;;;;;2.33;2.13;;;6.30;99.90;;;;;;5032666;28;20395;-71
2023/03/29 01:31:51;;;;;;;3.23;2.50;;;6.30;99.90;;;;;;5032861;28;20493;-71
2023/03/29 01:34:43;;;;;;;3.87;2.47;;;6.30;99.90;;;;;;5031818;28;20425;-72
2023/03/29 01:37:23;;;;;;;4.20;3.13;;;6.40;99.90;;;;;;5029925;28;21053;-72
2023/03/29 01:39:49;;;;;;;2.40;2.10;;;6.40;99.90;;;;;;5032732;28;20394;-71
2023/03/29 01:42:30;;;;;;;4.63;2.40;;;6.50;99.90;;;;;;5045107;28;20417;-71
2023/03/29 01:45:09;;;;;;;3.20;2.00;;;6.50;99.90;;;;;;5067923;28;20817;-72
2023/03/29 01:47:44;;;;;;;4.30;2.13;;;6.60;99.90;;;;;;5072160;28;20384;-71
2023/03/29 01:50:44;;;;;;;2.90;2.10;;;6.60;99.90;;;;;;5072477;28;20422;-71
2023/03/29 01:53:17;;;;;;;4.90;1.93;;;6.50;99.90;;;;;;5053351;28;20435;-72
2023/03/29 01:55:48;;;;;;;3.20;2.20;;;6.50;99.90;;;;;;5072376;28;20872;-72
2023/03/29 01:58:16;;;;;;;2.40;2.00;;;6.60;99.90;;;;;;5072157;28;20400;-71
2023/03/29 02:20:56;;;;;;;4.57;2.13;;;6.40;99.90;;;;;;5037081;28;20428;-72
2023/03/29 02:23:34;;;;;;;3.10;2.30;;;6.40;99.90;;;;;;5031995;28;20470;-72
2023/03/29 02:26:02;;;;;;;4.00;2.50;;;6.40;99.90;;;;;;5032067;28;20441;-72
2023/03/29 02:28:29;;;;;;;3.53;3.20;;;6.40;99.90;;;;;;5031699;28;20413;-72
2023/03/29 02:31:09;;;;;;;3.50;2.57;;;6.40;99.90;;;;;;5032012;28;20398;-71
2023/03/29 02:33:44;;;;;;;3.70;3.40;;;6.40;99.90;;;;;;5031920;28;20418;-72
2023/03/29 02:36:21;;;;;;;2.53;2.33;;;6.30;99.90;;;;;;5031899;28;20406;-72
2023/03/29 02:38:47;;;;;;;8.97;2.60;;;6.40;99.90;;;;;;5031605;28;20406;-72
2023/03/29 02:41:13;;;;;;;4.77;3.07;;;6.30;99.90;;;;;;5031902;28;20414;-72
2023/03/29 02:43:39;;;;;;;4.07;3.27;;;6.30;99.90;;;;;;5031691;28;20195;-72
2023/03/29 02:46:06;;;;;;;3.90;2.80;;;6.30;99.90;;;;;;5032270;28;20445;-72
2023/03/29 02:48:34;;;;;;;5.60;3.03;;;6.40;99.90;;;;;;5035652;28;20429;-72
2023/03/29 02:51:04;;;;;;;5.37;3.03;;;6.50;99.90;;;;;;5063045;28;20404;-71
2023/03/29 02:53:37;;;;;;;4.40;3.10;;;6.50;99.90;;;;;;5055812;28;20486;-71
2023/03/29 02:56:03;;;;;;;4.83;3.57;;;6.50;99.90;;;;;;5053301;28;20458;-72
2023/03/29 02:58:30;;;;;;;4.10;3.10;;;6.50;99.90;;;;;;5035448;28;20406;-71
2023/03/29 03:00:59;;;;;;;3.53;2.77;;;6.60;99.90;;;;;;5036652;28;20202;-73
2023/03/29 03:03:24;;;;;;;3.40;2.70;;;6.60;99.90;;;;;;5034873;28;20800;-72
2023/03/29 03:05:51;;;;;;;3.37;3.00;;;6.60;99.90;;;;;;5035509;28;20442;-73
2023/03/29 03:08:16;;;;;;;3.63;3.07;;;6.60;99.90;;;;;;5036120;28;20163;-72
2023/03/29 03:10:42;;;;;;;4.93;3.10;;;6.60;99.90;;;;;;5036082;28;20415;-72
2023/03/29 03:13:07;;;;;;;3.30;2.70;;;6.70;99.90;;;;;;5035337;28;20221;-73
2023/03/29 03:15:34;;;;;;;2.37;2.17;;;6.80;99.90;;;;;;5035520;28;20171;-73
2023/03/29 03:18:02;;;;;;;2.93;2.47;;;6.80;99.90;;;;;;5037166;28;20171;-73
2023/03/29 03:20:28;;;;;;;3.90;2.53;;;6.80;99.90;;;;;;5036794;28;20402;-74
2023/03/29 03:22:56;;;;;;;3.10;2.37;;;6.70;99.90;;;;;;5037113;28;20500;-71
2023/03/29 03:25:22;;;;;;;5.00;3.10;;;6.80;99.90;;;;;;5035228;28;20811;-72
2023/03/29 03:27:48;;;;;;;4.50;2.37;;;6.90;99.90;;;;;;5036845;28;20406;-71
2023/03/29 03:30:15;;;;;;;3.50;2.20;;;6.90;99.90;;;;;;5037496;28;20398;-71
2023/03/29 03:32:42;;;;;;;3.43;3.13;;;6.90;99.90;;;;;;5035160;28;20433;-71
2023/03/29 03:35:08;;;;;;;3.80;2.70;;;6.90;99.90;;;;;;5035823;28;20402;-73
2023/03/29 03:37:34;;;;;;;3.50;3.20;;;6.90;99.90;;;;;;5036262;28;20414;-71
2023/03/29 03:40:00;;;;;;;3.87;2.50;;;6.90;99.90;;;;;;5034991;28;20744;-71
2023/03/29 03:42:28;;;;;;;5.23;2.50;;;6.90;99.90;;;;;;5035001;28;20176;-72
2023/03/29 03:44:54;;;;;;;3.57;2.80;;;7.00;99.90;;;;;;5034725;28;20198;-71
2023/03/29 03:47:20;;;;;;;3.97;2.63;;;7.00;99.90;;;;;;5035448;28;20771;-73
2023/03/29 03:49:45;;;;;;;3.33;2.90;;;6.90;99.90;;;;;;5035208;28;20425;-72
2023/03/29 03:52:11;;;;;;;4.97;3.50;;;7.00;99.90;;;;;;5034864;28;20579;-71
2023/03/29 03:54:37;;;;;;;5.57;3.40;;;7.10;99.90;;;;;;5034553;28;20184;-72
2023/03/29 03:57:02;;;;;;;4.43;2.97;;;7.00;99.90;;;;;;5033128;28;20457;-72
2023/03/29 03:59:28;;;;;;;3.83;2.90;;;7.10;99.90;;;;;;5036283;28;20221;-71
2023/03/29 04:01:53;;;;;;;4.70;2.50;;;7.20;99.90;;;;;;5061446;28;20237;-72
2023/03/29 04:04:19;;;;;;;4.60;3.17;;;7.20;99.90;;;;;;5055357;28;20191;-71
2023/03/29 04:06:44;;;;;;;5.67;4.00;;;7.10;99.90;;;;;;5055467;28;20194;-72
2023/03/29 04:09:11;;;;;;;5.70;3.13;;;7.20;99.90;;;;;;5054108;28;20531;-72
2023/03/29 04:11:37;;;;;;;3.00;2.67;;;7.10;99.90;;;;;;5055138;28;20178;-73
2023/03/29 04:14:03;;;;;;;3.60;3.07;;;7.20;99.90;;;;;;5055385;28;21017;-72
2023/03/29 04:16:28;;;;;;;6.07;2.93;;;7.20;99.90;;;;;;5054272;28;20527;-72
2023/03/29 04:18:54;;;;;;;3.87;3.47;;;7.30;99.90;;;;;;5053920;28;20418;-72
2023/03/29 04:21:20;;;;;;;3.80;3.00;;;7.20;99.90;;;;;;5056024;28;20174;-72
2023/03/29 04:23:46;;;;;;;2.97;2.60;;;7.30;99.90;;;;;;5056084;28;20777;-73
2023/03/29 04:26:13;;;;;;;2.57;2.30;;;7.40;99.90;;;;;;5058514;28;20236;-74
2023/03/29 04:28:39;;;;;;;5.97;2.90;;;7.40;99.90;;;;;;5057336;28;20910;-72
2023/03/29 04:31:12;;;;;;;4.80;3.87;;;7.30;99.90;;;;;;5054575;28;20431;-70
2023/03/29 04:33:38;;;;;;;3.90;2.33;;;7.20;99.90;;;;;;5053964;28;20421;-71
2023/03/29 04:36:04;;;;;;;3.67;3.00;;;7.20;99.90;;;;;;5053933;28;20405;-72
2023/03/29 04:38:30;;;;;;;3.17;2.57;;;7.20;99.90;;;;;;5054396;28;20159;-73
2023/03/29 04:40:57;;;;;;;2.67;2.47;;;7.20;99.90;;;;;;5055037;28;20410;-72
2023/03/29 04:43:22;;;;;;;3.33;2.73;;;7.30;99.90;;;;;;5053728;28;20478;-72
2023/03/29 04:45:48;;;;;;;7.10;2.90;;;7.30;99.90;;;;;;5055642;28;20445;-72
2023/03/29 04:48:14;;;;;;;3.70;2.97;;;7.40;99.90;;;;;;5056254;28;20570;-72
2023/03/29 04:50:40;;;;;;;4.00;3.13;;;7.40;99.90;;;;;;5053531;28;20163;-71
2023/03/29 04:53:06;;;;;;;3.00;2.80;;;7.20;99.90;;;;;;5055930;28;20425;-73
2023/03/29 04:55:31;;;;;;;4.37;2.60;;;7.20;99.90;;;;;;5053123;28;20409;-71
2023/03/29 04:57:57;;;;;;;9.33;2.80;;;7.20;99.90;;;;;;5035150;28;20446;-72
2023/03/29 05:00:26;;;;;;;8.10;3.13;;;7.20;99.90;;;;;;5033603;28;20702;-71
2023/03/29 05:02:52;;;;;;;2.50;2.27;;;7.20;99.90;;;;;;5035298;28;20188;-72
2023/03/29 05:05:18;;;;;;;6.50;3.20;;;7.20;99.90;;;;;;5033340;28;20483;-72
2023/03/29 05:07:44;;;;;;;5.63;3.10;;;7.20;99.90;;;;;;5031794;28;20446;-72
2023/03/29 05:10:10;;;;;;;2.87;2.67;;;7.30;99.90;;;;;;5033069;28;20170;-72
2023/03/29 05:12:36;;;;;;;6.23;2.53;;;7.20;99.90;;;;;;5047836;28;20929;-70
2023/03/29 05:15:02;;;;;;;9.43;3.37;;;7.30;99.90;;;;;;5064167;28;20512;-70
2023/03/29 05:17:28;;;;;;;3.10;2.73;;;7.30;99.90;;;;;;5052790;28;20474;-70
2023/03/29 05:19:54;;;;;;;3.23;2.93;;;7.30;99.90;;;;;;5054746;28;20934;-71
2023/03/29 05:22:20;;;;;;;3.93;3.50;;;7.30;99.90;;;;;;5052979;28;20560;-71
2023/03/29 05:24:46;;;;;;;5.30;3.13;;;7.30;99.90;;;;;;5054544;28;20648;-72
2023/03/29 05:27:12;;;;;;;3.80;2.70;;;7.40;99.90;;;;;;5057077;28;20412;-70
2023/03/29 05:29:37;;;;;;;6.10;3.67;;;7.40;99.90;;;;;;5054791;28;20177;-71
2023/03/29 05:32:03;;;;;;;4.93;3.13;;;7.40;99.90;;;;;;5051607;28;20900;-70
2023/03/29 05:34:30;;;;;;;4.17;3.07;;;7.50;99.90;;;;;;5052742;28;20248;-71
2023/03/29 05:36:57;;;;;;;3.63;3.20;;;7.50;99.90;;;;;;5052458;28;20258;-71
2023/03/29 05:39:23;;;;;;;3.57;3.23;;;7.50;99.90;;;;;;5053772;28;20412;-72
2023/03/29 05:41:49;;;;;;;4.20;3.70;;;7.60;99.90;;;;;;5052205;28;20425;-70
2023/03/29 05:44:15;;;;;;;4.87;3.63;;;7.60;99.90;;;;;;5052579;28;20428;-71
2023/03/29 05:46:41;;;;;;;3.63;3.00;;;7.60;99.90;;;;;;5053884;28;20698;-72
2023/03/29 05:49:07;;;;;;;4.10;3.20;;;7.70;99.90;;;;;;5054259;28;20409;-71
2023/03/29 05:51:34;;;;;;;4.73;3.43;;;7.70;99.90;;;;;;5053330;28;20171;-71
2023/03/29 05:54:00;;;;;;;5.13;3.70;;;7.90;99.90;;;;;;5052463;28;20422;-71
2023/03/29 05:56:26;;;;;;;4.67;4.27;;;7.90;99.90;;;;;;5046911;28;20418;-71
2023/03/29 05:58:55;;;;;;;5.60;3.13;;;7.90;99.90;;;;;;5032188;28;20549;-71
2023/03/29 06:01:23;;;;;;;7.57;4.00;;;7.90;99.90;;;;;;5032496;28;20910;-70
2023/03/29 06:03:49;;;;;;;7.20;3.80;;;7.90;99.90;;;;;;5032276;28;20438;-71
2023/03/29 06:06:15;;;;;;;5.17;3.63;;;7.80;99.90;;;;;;5032267;28;20541;-71
2023/03/29 06:08:41;;;;;;;4.53;3.13;;;7.90;99.90;;;;;;5032120;28;20471;-70
2023/03/29 06:11:09;;;;;;;4.03;2.67;;;7.90;99.90;;;;;;5035479;28;20464;-72
2023/03/29 06:13:37;;;;;;;3.60;3.00;;;8.00;99.90;;;;;;5033763;28;20456;-71
2023/03/29 06:16:04;;;;;;;6.37;3.70;;;8.00;99.90;;;;;;5032230;28;20585;-70
2023/03/29 06:18:31;;;;;;;3.70;3.40;;;7.90;99.90;;;;;;5031860;28;20410;-70
2023/03/29 06:20:57;;;;;;;4.73;3.50;;;8.00;99.90;;;;;;5031559;28;20402;-70
2023/03/29 06:23:23;;;;;;;3.17;2.53;;;8.00;99.90;;;;;;5036658;28;20455;-70
2023/03/29 06:25:50;;;;;;;5.10;3.80;;;8.10;99.90;;;;;;5060675;28;20190;-70
2023/03/29 06:28:16;;;;;;;8.43;3.00;;;8.00;99.90;;;;;;5073706;28;20166;-71
2023/03/29 06:30:43;;;;;;;8.73;2.80;;;8.10;99.90;;;;;;5072624;28;20400;-71
2023/03/29 06:33:09;;;;;;;5.73;3.07;;;8.30;99.90;;;;;;5071863;28;20960;-70
2023/03/29 06:35:39;;;;;;;4.40;2.40;;;8.30;99.90;;;;;;5071964;28;20483;-70
2023/03/29 06:38:05;;;;;;;7.37;3.33;;;8.40;99.90;;;;;;5071763;28;20396;-71
2023/03/29 06:40:30;;;;;;;3.50;2.60;;;8.60;99.90;;;;;;5071888;28;20474;-71
2023/03/29 06:42:56;;;;;;;4.83;2.37;;;8.70;99.90;;;;;;5071830;28;20186;-71
2023/03/29 06:45:23;;;;;;;7.90;3.00;;;8.90;99.90;;;;;;5071760;28;20204;-71
2023/03/29 06:47:49;;;;;;;4.07;3.03;;;8.90;99.90;;;;;;5071575;28;20419;-71
2023/03/29 06:50:16;;;;;;;2.97;2.67;;;8.90;99.90;;;;;;5073939;28;20444;-72
2023/03/29 06:52:42;;;;;;;7.20;2.70;;;9.00;99.90;;;;;;5073029;28;20420;-70
2023/03/29 06:55:10;;;;;;;3.17;2.60;;;9.10;99.90;;;;;;5071774;28;20400;-70
2023/03/29 06:57:36;;;;;;;4.00;2.30;;;9.20;99.90;;;;;;5056281;28;20421;-70
2023/03/29 07:00:09;;;;;;;4.40;2.73;;;9.40;99.90;;;;;;5051573;28;20414;-71
2023/03/29 07:02:34;;;;;;;6.30;2.73;;;9.50;99.90;;;;;;5051861;28;21040;-71
2023/03/29 07:05:00;;;;;;;2.60;2.33;;;9.70;99.90;;;;;;5050451;28;20429;-72
2023/03/29 07:07:32;;;;;;;3.83;2.50;;;9.80;99.90;;;;;;5054900;28;20160;-72
2023/03/29 07:10:00;;;;;;;3.83;2.20;;;9.90;99.90;;;;;;5051794;28;20397;-72
2023/03/29 07:12:26;;;;;;;5.33;2.80;;;9.80;99.90;;;;;;5051503;28;20496;-71
2023/03/29 07:14:52;;;;;;;7.93;3.20;;;9.80;99.90;;;;;;5051446;28;20508;-71
2023/03/29 07:17:18;;;;;;;4.70;2.53;;;9.70;99.90;;;;;;5057042;28;20253;-71
2023/03/29 07:19:43;;;;;;;7.53;2.53;;;9.60;99.90;;;;;;5054681;28;20433;-71
2023/03/29 07:22:09;;;;;;;3.83;2.87;;;9.60;99.90;;;;;;5051438;28;20213;-72
2023/03/29 07:24:35;;;;;;;3.07;2.60;;;9.60;99.90;;;;;;5056736;28;20552;-71
2023/03/29 07:27:00;;;;;;;5.87;2.93;;;9.60;99.90;;;;;;5052835;28;20471;-73
2023/03/29 07:29:27;;;;;;;3.17;2.10;;;9.70;99.90;;;;;;5055145;28;20187;-71
2023/03/29 07:31:53;;;;;;;6.53;3.10;;;9.70;99.90;;;;;;5057695;28;20810;-70
2023/03/29 07:34:18;;;;;;;3.50;1.93;;;9.90;99.90;;;;;;5069081;28;20436;-72
2023/03/29 07:36:44;;;;;;;3.90;2.67;;;10.00;99.90;;;;;;5056883;28;20179;-71
2023/03/29 07:39:11;;;;;;;6.50;3.70;;;10.10;99.90;;;;;;5055316;28;20228;-71
2023/03/29 07:41:37;;;;;;;3.23;2.93;;;10.30;99.90;;;;;;5063955;28;20186;-72
2023/03/29 07:44:07;;;;;;;3.40;2.40;;;10.50;99.90;;;;;;5068174;28;20500;-73
2023/03/29 07:46:35;;;;;;;6.60;2.90;;;10.70;99.90;;;;;;5053621;28;20310;-72
2023/03/29 07:49:01;;;;;;;5.47;3.10;;;11.10;99.90;;;;;;5054658;28;20488;-71
2023/03/29 07:51:27;;;;;;;4.27;2.90;;;11.60;99.90;;;;;;5054803;28;20440;-72
2023/03/29 07:53:52;;;;;;;3.50;2.87;;;12.10;99.90;;;;;;5054764;28;20828;-72
2023/03/29 07:56:18;;;;;;;3.40;2.67;;;12.60;99.90;;;;;;5050137;28;20178;-72
2023/03/29 07:58:45;;;;;;;3.40;2.47;;;12.80;99.90;;;;;;5034516;28;20625;-71
2023/03/29 08:01:14;;;;;;;3.30;2.13;;;12.90;99.90;;;;;;5034582;28;20416;-71
2023/03/29 08:03:40;;;;;;;2.60;2.33;;;13.10;99.90;;;;;;5034569;28;20430;-71
2023/03/29 08:06:06;;;;;;;5.53;2.83;;;13.20;99.90;;;;;;5034480;28;20452;-71
2023/03/29 08:08:31;;;;;;;4.10;2.40;;;13.40;99.90;;;;;;5034235;28;21180;-72
2023/03/29 08:10:57;;;;;;;9.07;2.60;;;13.70;99.90;;;;;;5034444;28;20453;-72
2023/03/29 08:13:23;;;;;;;4.00;2.73;;;14.10;99.90;;;;;;5034524;28;20584;-72
2023/03/29 08:15:49;;;;;;;4.07;2.63;;;14.50;99.90;;;;;;5034512;28;20172;-73
2023/03/29 08:18:14;;;;;;;4.57;2.60;;;14.70;99.90;;;;;;5033083;28;20286;-72
2023/03/29 08:20:41;;;;;;;4.40;2.70;;;14.70;99.90;;;;;;5034390;28;20441;-70
2023/03/29 08:23:06;;;;;;;3.03;2.73;;;14.50;99.90;;;;;;5034137;28;20211;-71
2023/03/29 08:25:33;;;;;;;4.10;2.40;;;14.40;99.90;;;;;;5034157;28;20516;-72
2023/03/29 08:27:58;;;;;;;3.67;2.90;;;14.10;99.90;;;;;;5033968;28;20164;-72
2023/03/29 08:30:23;;;;;;;3.60;2.53;;;14.00;99.90;;;;;;5034065;28;20522;-71
2023/03/29 08:32:50;;;;;;;3.80;2.30;;;14.00;99.90;;;;;;5034268;28;20184;-71
2023/03/29 08:35:15;;;;;;;3.63;2.87;;;14.00;99.90;;;;;;5034019;28;20178;-70
2023/03/29 08:37:41;;;;;;;3.33;2.43;;;13.90;99.90;;;;;;5035229;28;20410;-71
2023/03/29 08:40:10;;;;;;;3.80;2.73;;;14.00;99.90;;;;;;5065000;28;20175;-70
2023/03/29 08:43:13;;;;;;;4.80;2.63;;;13.90;99.90;;;;;;5053703;28;20186;-71
2023/03/29 08:45:41;;;;;;;6.10;3.27;;;13.70;99.90;;;;;;5053634;28;20455;-71
2023/03/29 08:48:27;;;;;;;6.40;2.60;;;13.50;99.90;;;;;;5053598;28;20767;-70
2023/03/29 08:50:57;;;;;;;2.10;1.90;;;13.20;99.90;;;;;;5053482;28;20450;-72
2023/03/29 08:53:44;;;;;;;4.63;2.00;;;13.20;99.90;;;;;;5052330;28;20461;-72
2023/03/29 08:56:19;;;;;;;2.07;1.70;;;13.30;99.90;;;;;;5050410;28;20417;-71
2023/03/29 08:58:46;;;;;;;5.50;2.20;;;13.20;99.90;;;;;;5033584;28;20895;-71
2023/03/29 09:01:12;;;;;;;3.00;2.70;;;13.00;99.90;;;;;;5032353;28;20465;-71
2023/03/29 09:03:48;;;;;;;3.30;1.90;;;13.20;99.90;;;;;;5033575;28;20957;-71
2023/03/29 09:06:16;;;;;;;4.13;2.53;;;13.40;99.90;;;;;;5033380;28;20564;-71
2023/03/29 09:08:46;;;;;;;3.50;2.30;;;13.40;99.90;;;;;;5033112;28;20410;-70
2023/03/29 09:11:22;;;;;;;2.40;2.20;;;13.60;99.90;;;;;;5033380;28;20915;-70
2023/03/29 09:14:25;;;;;;;4.00;1.97;;;13.80;99.90;;;;;;5033316;28;20781;-72
2023/03/29 09:17:17;;;;;;;3.53;3.20;;;14.00;99.90;;;;;;5033131;28;20765;-70
2023/03/29 09:20:03;;;;;;;3.30;2.40;;;14.10;99.90;;;;;;5033409;28;20402;-70
2023/03/29 09:23:05;;;;;;;3.47;2.23;;;14.10;99.90;;;;;;5032168;28;20402;-71
2023/03/29 09:25:52;;;;;;;4.10;2.30;;;14.20;99.90;;;;;;5032975;28;20979;-72
2023/03/29 09:28:28;;;;;;;5.77;2.00;;;14.30;99.90;;;;;;5033038;28;20402;-70
2023/03/29 09:31:05;;;;;;;3.80;2.40;;;14.20;99.90;;;;;;5033186;28;20510;-71
2023/03/29 09:33:42;;;;;;;4.07;2.30;;;14.10;99.90;;;;;;5033252;28;20414;-71
2023/03/29 09:36:16;;;;;;;3.20;2.40;;;14.10;99.90;;;;;;5032915;28;20412;-70
2023/03/29 09:38:46;;;;;;;3.80;3.00;;;14.20;99.90;;;;;;5033035;28;20398;-71
2023/03/29 09:41:32;;;;;;;4.10;2.60;;;14.30;99.90;;;;;;5032972;28;20406;-71
2023/03/29 09:44:04;;;;;;;8.27;2.67;;;14.40;99.90;;;;;;5033030;28;20840;-71
2023/03/29 09:46:43;;;;;;;3.63;2.53;;;14.50;99.90;;;;;;5031655;28;20537;-72
2023/03/29 09:49:16;;;;;;;4.27;2.60;;;14.60;99.90;;;;;;5034725;28;20402;-72
2023/03/29 09:51:43;;;;;;;4.50;2.00;;;14.70;99.90;;;;;;5060776;28;20421;-70
2023/03/29 09:54:11;;;;;;;4.00;2.57;;;14.70;99.90;;;;;;5053409;28;20512;-71
2023/03/29 09:56:38;;;;;;;3.50;2.33;;;14.80;99.90;;;;;;5045112;28;20413;-70
2023/03/29 09:59:03;;;;;;;3.30;1.70;;;14.80;99.90;;;;;;5032273;28;20402;-71
2023/03/29 10:01:37;;;;;;;2.80;2.60;;;15.00;99.90;;;;;;5032775;28;20471;-72
2023/03/29 10:04:05;;;;;;;2.73;2.53;;;15.10;99.90;;;;;;5032411;28;20191;-71
2023/03/29 10:06:33;;;;;;;3.73;2.50;;;15.20;99.90;;;;;;5032186;28;20454;-72
2023/03/29 10:08:58;;;;;;;3.17;2.37;;;15.30;99.90;;;;;;5032134;28;20751;-71
2023/03/29 10:11:33;;;;;;;2.20;1.40;;;15.20;99.90;;;;;;5032475;28;20420;-72
2023/03/29 10:14:11;;;;;;;2.90;2.13;;;15.30;99.90;;;;;;5032062;28;20195;-72
2023/03/29 10:16:44;;;;;;;2.90;1.90;;;15.40;99.90;;;;;;5032252;28;20406;-70
2023/03/29 10:19:29;;;;;;;4.43;2.30;;;15.40;99.90;;;;;;5032734;28;20443;-71
2023/03/29 10:21:58;;;;;;;2.93;2.13;;;15.80;99.90;;;;;;5032168;28;20767;-72
2023/03/29 10:24:26;;;;;;;3.47;2.33;;;16.20;99.90;;;;;;5033021;28;20441;-71
2023/03/29 10:27:01;;;;;;;2.43;1.80;;;16.30;99.90;;;;;;5031888;28;21231;-72
2023/03/29 10:29:35;;;;;;;2.83;2.03;;;16.50;99.90;;;;;;5032130;28;20409;-71
2023/03/29 10:32:00;;;;;;;3.37;2.00;;;16.80;99.90;;;;;;5032849;28;20401;-70
2023/03/29 10:34:27;;;;;;;3.27;2.10;;;17.10;99.90;;;;;;5032288;28;20975;-71
2023/03/29 10:36:59;;;;;;;2.20;1.80;;;17.30;99.90;;;;;;5031761;28;20178;-70
2023/03/29 10:39:28;;;;;;;3.27;2.37;;;17.50;99.90;;;;;;5032030;28;20439;-71
2023/03/29 10:41:54;;;;;;;2.43;2.03;;;17.80;99.90;;;;;;5031907;28;20417;-72
2023/03/29 10:44:26;;;;;;;5.83;2.30;;;17.90;99.90;;;;;;5032553;28;20508;-72
2023/03/29 10:46:52;;;;;;;3.50;2.60;;;18.20;99.90;;;;;;5032396;28;20458;-72
2023/03/29 10:49:20;;;;;;;3.67;2.90;;;18.90;99.90;;;;;;5032213;28;20961;-71
2023/03/29 10:51:48;;;;;;;3.23;2.10;;;19.40;99.90;;;;;;5031871;28;20170;-72
2023/03/29 10:54:18;;;;;;;7.50;2.40;;;19.50;99.90;;;;;;5032207;28;20433;-71
2023/03/29 10:56:56;;;;;;;3.17;2.47;;;19.10;96.90;;;;;;5032055;28;20737;-72
2023/03/29 10:59:28;;;;;;;2.90;1.80;;;19.30;99.00;;;;;;5031779;28;20992;-73
2023/03/29 11:02:00;;;;;;;2.43;2.13;;;19.40;97.90;;;;;;5051219;28;20507;-72
2023/03/29 11:04:44;;;;;;;2.93;2.13;;;19.40;96.20;;;;;;5055964;28;20441;-71
2023/03/29 11:07:27;;;;;;;2.73;2.50;;;19.40;95.70;;;;;;5052168;28;20456;-71
2023/03/29 11:10:04;;;;;;;2.60;1.70;;;19.30;96.10;;;;;;5056168;28;20462;-70
2023/03/29 11:13:00;;;;;;;6.40;2.60;;;19.30;96.40;;;;;;5055580;28;20753;-72
2023/03/29 11:15:52;;;;;;;3.67;2.47;;;19.40;96.50;;;;;;5056106;28;20421;-71
2023/03/29 11:18:40;;;;;;;3.00;2.20;;;19.30;95.30;;;;;;5055413;28;20409;-71
2023/03/29 11:21:20;;;;;;;2.00;1.90;;;19.50;96.30;;;;;;5055412;28;20390;-71
2023/03/29 11:23:57;;;;;;;3.53;1.90;;;19.80;95.40;;;;;;5053982;28;20429;-70
2023/03/29 11:26:29;;;;;;;3.67;1.43;;;20.20;94.30;;;;;;5055211;28;20441;-71
2023/03/29 11:29:25;;;;;;;1.87;1.43;;;20.40;92.30;;;;;;5054916;28;20754;-71
2023/03/29 11:32:09;;;;;;;2.37;1.60;;;20.50;91.40;;;;;;5055585;28;20400;-71
2023/03/29 11:35:13;;;;;;;5.30;1.70;;;21.80;91.60;;;;;;5055433;28;20783;-72
2023/03/29 11:37:52;;;;;;;6.13;2.13;;;23.00;88.00;;;;;;5054513;28;20454;-71
2023/03/29 11:40:40;;;;;;;4.37;2.00;;;23.50;76.90;;;;;;5055008;28;20745;-72
2023/03/29 11:43:34;;;;;;;1.87;1.63;;;23.60;71.30;;;;;;5054892;28;20421;-71
2023/03/29 11:46:08;;;;;;;1.40;1.30;;;23.40;70.90;;;;;;5052164;28;21132;-72
2023/03/29 11:48:45;;;;;;;3.57;1.60;;;23.20;70.10;;;;;;5054659;28;20484;-70
2023/03/29 11:51:21;;;;;;;2.77;1.90;;;22.80;70.80;;;;;;5054938;28;20539;-72
2023/03/29 11:54:02;;;;;;;1.53;1.43;;;22.50;71.30;;;;;;5055003;28;20424;-71
2023/03/29 11:56:39;;;;;;;1.50;1.20;;;21.70;71.30;;;;;;5048973;28;20410;-71
2023/03/29 11:59:31;;;;;;;5.60;1.97;;;21.30;74.90;;;;;;5034518;28;20461;-71
2023/03/29 12:02:20;;;;;;;2.07;1.67;;;21.00;77.50;;;;;;5033249;28;21138;-71
2023/03/29 12:04:50;;;;;;;2.37;1.20;;;20.50;77.70;;;;;;5034476;28;20417;-71
2023/03/29 12:07:31;;;;;;;2.40;1.73;;;20.50;79.50;;;;;;5034264;28;20949;-71
2023/03/29 12:10:07;;;;;;;6.90;1.57;;;20.10;79.90;;;;;;5034729;28;20742;-72
2023/03/29 12:12:45;;;;;;;1.90;1.50;;;19.60;83.10;;;;;;5040270;28;20417;-72
2023/03/29 12:15:16;;;;;;;2.73;1.50;;;19.60;86.00;;;;;;5053789;28;20774;-72
2023/03/29 12:17:48;;;;;;;2.43;1.17;;;19.60;85.90;;;;;;5073548;28;20799;-71
2023/03/29 12:20:22;;;;;;;2.10;1.30;;;19.70;86.00;;;;;;5073938;28;20425;-71
2023/03/29 12:22:49;;;;;;;6.83;1.73;;;20.50;88.00;;;;;;5074120;28;20416;-71
2023/03/29 12:25:20;;;;;;;1.60;1.20;;;21.20;83.90;;;;;;5072790;28;20448;-71
2023/03/29 12:28:02;;;;;;;2.60;1.40;;;21.50;80.40;;;;;;5073919;28;20405;-71
2023/03/29 12:30:58;;;;;;;2.90;1.47;;;22.70;78.30;;;;;;5074152;28;20450;-71
2023/03/29 12:33:50;;;;;;;2.00;1.73;;;24.10;74.20;;;;;;5073973;28;20518;-72
2023/03/29 12:36:21;;;;;;;1.37;1.20;;;25.70;68.90;;;;;;5074014;28;20495;-72
2023/03/29 12:38:51;;;;;;;2.10;1.40;;;25.80;61.50;;;;;;5073638;28;20412;-72
2023/03/29 12:41:19;;;;;;;1.50;1.40;;;25.70;59.20;;;;;;5074037;28;20404;-72
2023/03/29 12:43:46;;;;;;;2.10;1.17;;;25.20;57.20;;;;;;5073808;28;20515;-72
2023/03/29 12:46:20;;;;;;;2.60;2.17;;;24.70;58.00;;;;;;5073798;28;20518;-72
2023/03/29 12:48:51;;;;;;;2.23;1.50;;;24.00;57.80;;;;;;5073508;28;20445;-72
2023/03/29 12:51:21;;;;;;;6.57;1.80;;;24.10;60.60;;;;;;5073827;28;20406;-72
2023/03/29 12:53:53;;;;;;;4.10;1.40;;;25.20;59.10;;;;;;5073573;28;20456;-72
2023/03/29 12:56:22;;;;;;;2.43;2.07;;;25.50;57.30;;;;;;5069009;28;20409;-73
2023/03/29 12:58:52;;;;;;;4.90;1.77;;;25.50;56.40;;;;;;5053348;28;20419;-72
2023/03/29 13:01:33;;;;;;;2.50;1.53;;;26.10;56.90;;;;;;5052367;28;20417;-74
2023/03/29 13:03:58;;;;;;;2.57;1.40;;;27.50;54.60;;;;;;5053261;28;20993;-71
2023/03/29 13:06:47;;;;;;;2.43;1.40;;;27.80;52.30;;;;;;5053400;28;20441;-72
2023/03/29 13:09:28;;;;;;;1.60;1.40;;;29.00;52.40;;;;;;5051820;28;20163;-72
2023/03/29 13:11:56;;;;;;;1.80;1.40;;;29.30;48.70;;;;;;5053305;28;20433;-71
2023/03/29 13:14:26;;;;;;;2.37;1.80;;;28.60;48.80;;;;;;5053061;28;20444;-71
2023/03/29 13:16:52;;;;;;;1.50;1.20;;;28.70;48.30;;;;;;5052940;28;20429;-72
2023/03/29 13:19:39;;;;;;;1.77;1.33;;;28.00;48.40;;;;;;5054406;28;20408;-71
2023/03/29 13:22:42;;;;;;;1.87;1.60;;;26.80;49.50;;;;;;5050894;28;20427;-71
2023/03/29 13:25:43;;;;;;;1.20;1.03;;;26.50;50.60;;;;;;5069467;28;20610;-70
2023/03/29 13:28:29;;;;;;;2.00;1.33;;;26.60;51.40;;;;;;5070975;28;20421;-71
2023/03/29 13:31:04;;;;;;;1.93;1.20;;;26.30;50.70;;;;;;5072860;28;20389;-71
2023/03/29 13:33:54;;;;;;;1.63;1.43;;;26.20;51.70;;;;;;5072855;28;20409;-71